sensor_id;sensor_type;location;lat;lon;timestamp;P1;durP1;ratioP1;P2;durP2;ratioP2
36725;SDS011;44936;52.086;5.150;2023-07-24T00:01:59;2.20;;;1.30;;
36725;SDS011;44936;52.086;5.150;2023-07-24T00:04:25;3.58;;;1.33;;
36725;SDS011;44936;52.086;5.150;2023-07-24T00:06:50;3.45;;;1.45;;
36725;SDS011;44936;52.086;5.150;2023-07-24T00:09:15;2.67;;;1.08;;
36725;SDS011;44936;52.086;5.150;2023-07-24T00:11:41;1.45;;;0.95;;
36725;SDS011;44936;52.086;5.150;2023-07-24T00:14:06;3.97;;;1.50;;
36725;SDS011;44936;52.086;5.150;2023-07-24T00:16:31;3.05;;;1.25;;
36725;SDS011;44936;52.086;5.150;2023-07-24T00:18:57;1.80;;;1.17;;
36725;SDS011;44936;52.086;5.150;2023-07-24T00:21:22;1.80;;;0.98;;
36725;SDS011;44936;52.086;5.150;2023-07-24T00:23:48;2.33;;;1.20;;
36725;SDS011;44936;52.086;5.150;2023-07-24T00:26:13;2.35;;;1.17;;
36725;SDS011;44936;52.086;5.150;2023-07-24T00:28:38;1.65;;;1.10;;
36725;SDS011;44936;52.086;5.150;2023-07-24T00:31:03;3.25;;;1.23;;
36725;SDS011;44936;52.086;5.150;2023-07-24T00:33:29;2.53;;;1.40;;
36725;SDS011;44936;52.086;5.150;2023-07-24T00:35:57;2.72;;;1.75;;
36725;SDS011;44936;52.086;5.150;2023-07-24T00:38:23;3.17;;;1.10;;
36725;SDS011;44936;52.086;5.150;2023-07-24T00:40:48;2.05;;;1.35;;
36725;SDS011;44936;52.086;5.150;2023-07-24T00:43:14;2.10;;;1.20;;
36725;SDS011;44936;52.086;5.150;2023-07-24T00:45:40;1.55;;;1.15;;
36725;SDS011;44936;52.086;5.150;2023-07-24T00:48:05;1.92;;;1.40;;
36725;SDS011;44936;52.086;5.150;2023-07-24T00:50:30;1.88;;;1.20;;
36725;SDS011;44936;52.086;5.150;2023-07-24T00:52:56;2.13;;;1.05;;
36725;SDS011;44936;52.086;5.150;2023-07-24T00:55:22;2.72;;;1.38;;
36725;SDS011;44936;52.086;5.150;2023-07-24T00:57:48;3.78;;;1.63;;
36725;SDS011;44936;52.086;5.150;2023-07-24T01:00:14;1.90;;;1.30;;
36725;SDS011;44936;52.086;5.150;2023-07-24T01:02:40;3.10;;;1.33;;
36725;SDS011;44936;52.086;5.150;2023-07-24T01:05:05;2.80;;;1.30;;
36725;SDS011;44936;52.086;5.150;2023-07-24T01:07:31;2.38;;;1.45;;
36725;SDS011;44936;52.086;5.150;2023-07-24T01:09:57;2.90;;;1.42;;
36725;SDS011;44936;52.086;5.150;2023-07-24T01:12:27;4.28;;;1.27;;
36725;SDS011;44936;52.086;5.150;2023-07-24T01:15:09;2.58;;;1.23;;
36725;SDS011;44936;52.086;5.150;2023-07-24T01:17:42;1.90;;;1.25;;
36725;SDS011;44936;52.086;5.150;2023-07-24T01:20:13;2.40;;;1.30;;
36725;SDS011;44936;52.086;5.150;2023-07-24T01:27:45;1.85;;;1.20;;
36725;SDS011;44936;52.086;5.150;2023-07-24T01:30:11;2.22;;;0.95;;
36725;SDS011;44936;52.086;5.150;2023-07-24T01:32:38;2.05;;;1.23;;
36725;SDS011;44936;52.086;5.150;2023-07-24T01:35:04;2.60;;;1.30;;
36725;SDS011;44936;52.086;5.150;2023-07-24T01:37:31;2.65;;;1.00;;
36725;SDS011;44936;52.086;5.150;2023-07-24T01:39:56;2.15;;;1.15;;
36725;SDS011;44936;52.086;5.150;2023-07-24T01:42:23;1.80;;;1.02;;
36725;SDS011;44936;52.086;5.150;2023-07-24T01:44:53;1.77;;;1.10;;
36725;SDS011;44936;52.086;5.150;2023-07-24T01:47:19;2.13;;;1.35;;
36725;SDS011;44936;52.086;5.150;2023-07-24T01:49:45;1.77;;;1.20;;
36725;SDS011;44936;52.086;5.150;2023-07-24T01:52:11;1.67;;;1.10;;
36725;SDS011;44936;52.086;5.150;2023-07-24T01:54:36;2.15;;;1.00;;
36725;SDS011;44936;52.086;5.150;2023-07-24T01:57:01;4.28;;;1.63;;
36725;SDS011;44936;52.086;5.150;2023-07-24T01:59:27;2.45;;;1.00;;
36725;SDS011;44936;52.086;5.150;2023-07-24T02:01:52;3.03;;;1.33;;
36725;SDS011;44936;52.086;5.150;2023-07-24T02:04:17;1.40;;;0.90;;
36725;SDS011;44936;52.086;5.150;2023-07-24T02:06:43;2.03;;;1.25;;
36725;SDS011;44936;52.086;5.150;2023-07-24T02:09:09;3.42;;;1.10;;
36725;SDS011;44936;52.086;5.150;2023-07-24T02:11:35;2.35;;;1.20;;
36725;SDS011;44936;52.086;5.150;2023-07-24T02:14:00;3.08;;;1.30;;
36725;SDS011;44936;52.086;5.150;2023-07-24T02:16:25;2.38;;;1.20;;
36725;SDS011;44936;52.086;5.150;2023-07-24T02:18:50;3.60;;;0.90;;
36725;SDS011;44936;52.086;5.150;2023-07-24T02:21:16;2.25;;;1.10;;
36725;SDS011;44936;52.086;5.150;2023-07-24T02:23:41;1.33;;;1.08;;
36725;SDS011;44936;52.086;5.150;2023-07-24T02:26:06;2.65;;;1.23;;
36725;SDS011;44936;52.086;5.150;2023-07-24T02:28:32;2.28;;;1.23;;
36725;SDS011;44936;52.086;5.150;2023-07-24T02:30:57;2.08;;;1.02;;
36725;SDS011;44936;52.086;5.150;2023-07-24T02:33:24;2.72;;;1.13;;
36725;SDS011;44936;52.086;5.150;2023-07-24T02:35:50;1.67;;;1.17;;
36725;SDS011;44936;52.086;5.150;2023-07-24T02:38:17;2.63;;;0.82;;
36725;SDS011;44936;52.086;5.150;2023-07-24T02:40:43;2.40;;;1.20;;
36725;SDS011;44936;52.086;5.150;2023-07-24T02:43:09;1.85;;;0.98;;
36725;SDS011;44936;52.086;5.150;2023-07-24T02:45:34;2.13;;;1.20;;
36725;SDS011;44936;52.086;5.150;2023-07-24T02:48:00;2.35;;;1.38;;
36725;SDS011;44936;52.086;5.150;2023-07-24T02:50:27;2.95;;;1.65;;
36725;SDS011;44936;52.086;5.150;2023-07-24T02:52:52;3.15;;;1.40;;
36725;SDS011;44936;52.086;5.150;2023-07-24T02:55:17;3.15;;;1.40;;
36725;SDS011;44936;52.086;5.150;2023-07-24T02:57:43;2.25;;;1.23;;
36725;SDS011;44936;52.086;5.150;2023-07-24T03:00:08;2.10;;;1.20;;
36725;SDS011;44936;52.086;5.150;2023-07-24T03:02:34;1.63;;;1.10;;
36725;SDS011;44936;52.086;5.150;2023-07-24T03:04:59;1.70;;;1.00;;
36725;SDS011;44936;52.086;5.150;2023-07-24T03:07:25;3.63;;;1.40;;
36725;SDS011;44936;52.086;5.150;2023-07-24T03:09:50;2.75;;;1.60;;
36725;SDS011;44936;52.086;5.150;2023-07-24T03:12:16;1.60;;;1.10;;
36725;SDS011;44936;52.086;5.150;2023-07-24T03:14:41;3.08;;;1.05;;
36725;SDS011;44936;52.086;5.150;2023-07-24T03:17:07;2.63;;;1.42;;
36725;SDS011;44936;52.086;5.150;2023-07-24T03:19:32;5.25;;;1.50;;
36725;SDS011;44936;52.086;5.150;2023-07-24T03:21:57;4.55;;;1.52;;
36725;SDS011;44936;52.086;5.150;2023-07-24T03:24:22;2.58;;;1.45;;
36725;SDS011;44936;52.086;5.150;2023-07-24T03:26:48;3.67;;;1.73;;
36725;SDS011;44936;52.086;5.150;2023-07-24T03:29:13;3.08;;;1.52;;
36725;SDS011;44936;52.086;5.150;2023-07-24T03:31:38;4.40;;;1.50;;
36725;SDS011;44936;52.086;5.150;2023-07-24T03:34:04;4.20;;;1.50;;
36725;SDS011;44936;52.086;5.150;2023-07-24T03:36:29;2.45;;;1.42;;
36725;SDS011;44936;52.086;5.150;2023-07-24T03:38:54;3.00;;;1.52;;
36725;SDS011;44936;52.086;5.150;2023-07-24T03:41:20;4.32;;;1.70;;
36725;SDS011;44936;52.086;5.150;2023-07-24T03:43:45;2.97;;;1.55;;
36725;SDS011;44936;52.086;5.150;2023-07-24T03:46:10;3.17;;;1.50;;
36725;SDS011;44936;52.086;5.150;2023-07-24T03:48:36;3.03;;;1.42;;
36725;SDS011;44936;52.086;5.150;2023-07-24T03:51:01;3.38;;;1.48;;
36725;SDS011;44936;52.086;5.150;2023-07-24T03:53:27;2.55;;;1.70;;
36725;SDS011;44936;52.086;5.150;2023-07-24T03:55:53;4.00;;;1.83;;
36725;SDS011;44936;52.086;5.150;2023-07-24T03:58:19;3.22;;;1.90;;
36725;SDS011;44936;52.086;5.150;2023-07-24T04:00:45;4.85;;;2.08;;
36725;SDS011;44936;52.086;5.150;2023-07-24T04:03:11;2.70;;;1.50;;
36725;SDS011;44936;52.086;5.150;2023-07-24T04:05:36;2.65;;;1.30;;
36725;SDS011;44936;52.086;5.150;2023-07-24T04:08:02;3.85;;;1.73;;
36725;SDS011;44936;52.086;5.150;2023-07-24T04:10:28;2.65;;;1.58;;
36725;SDS011;44936;52.086;5.150;2023-07-24T04:12:53;4.40;;;1.77;;
36725;SDS011;44936;52.086;5.150;2023-07-24T04:15:19;3.25;;;1.42;;
36725;SDS011;44936;52.086;5.150;2023-07-24T04:17:44;2.95;;;1.40;;
36725;SDS011;44936;52.086;5.150;2023-07-24T04:20:10;4.32;;;1.90;;
36725;SDS011;44936;52.086;5.150;2023-07-24T04:22:35;2.72;;;1.60;;
36725;SDS011;44936;52.086;5.150;2023-07-24T04:25:00;5.53;;;1.92;;
36725;SDS011;44936;52.086;5.150;2023-07-24T04:27:27;6.93;;;1.98;;
36725;SDS011;44936;52.086;5.150;2023-07-24T04:29:53;3.67;;;1.80;;
36725;SDS011;44936;52.086;5.150;2023-07-24T04:32:18;2.78;;;1.58;;
36725;SDS011;44936;52.086;5.150;2023-07-24T04:34:43;4.28;;;1.95;;
36725;SDS011;44936;52.086;5.150;2023-07-24T04:37:09;3.85;;;1.77;;
36725;SDS011;44936;52.086;5.150;2023-07-24T04:39:34;2.33;;;1.42;;
36725;SDS011;44936;52.086;5.150;2023-07-24T04:42:00;3.55;;;1.67;;
36725;SDS011;44936;52.086;5.150;2023-07-24T04:44:25;5.55;;;1.95;;
36725;SDS011;44936;52.086;5.150;2023-07-24T04:46:50;2.80;;;1.50;;
36725;SDS011;44936;52.086;5.150;2023-07-24T04:49:16;4.85;;;2.17;;
36725;SDS011;44936;52.086;5.150;2023-07-24T04:51:41;6.03;;;2.10;;
36725;SDS011;44936;52.086;5.150;2023-07-24T04:54:06;4.47;;;1.92;;
36725;SDS011;44936;52.086;5.150;2023-07-24T04:56:32;4.45;;;1.80;;
36725;SDS011;44936;52.086;5.150;2023-07-24T04:58:57;4.75;;;2.13;;
36725;SDS011;44936;52.086;5.150;2023-07-24T05:01:23;4.55;;;2.10;;
36725;SDS011;44936;52.086;5.150;2023-07-24T05:03:48;3.75;;;1.60;;
36725;SDS011;44936;52.086;5.150;2023-07-24T05:06:13;3.35;;;1.80;;
36725;SDS011;44936;52.086;5.150;2023-07-24T05:08:39;3.65;;;1.70;;
36725;SDS011;44936;52.086;5.150;2023-07-24T05:11:04;4.80;;;1.95;;
36725;SDS011;44936;52.086;5.150;2023-07-24T05:13:29;4.63;;;1.52;;
36725;SDS011;44936;52.086;5.150;2023-07-24T05:15:55;3.78;;;1.95;;
36725;SDS011;44936;52.086;5.150;2023-07-24T05:18:20;3.45;;;1.70;;
36725;SDS011;44936;52.086;5.150;2023-07-24T05:20:46;3.70;;;1.50;;
36725;SDS011;44936;52.086;5.150;2023-07-24T05:23:13;4.72;;;1.60;;
36725;SDS011;44936;52.086;5.150;2023-07-24T05:25:39;7.60;;;2.65;;
36725;SDS011;44936;52.086;5.150;2023-07-24T05:28:04;4.47;;;2.10;;
36725;SDS011;44936;52.086;5.150;2023-07-24T05:30:30;6.13;;;1.95;;
36725;SDS011;44936;52.086;5.150;2023-07-24T05:32:55;6.28;;;1.67;;
36725;SDS011;44936;52.086;5.150;2023-07-24T05:35:20;3.30;;;1.60;;
36725;SDS011;44936;52.086;5.150;2023-07-24T05:37:46;5.53;;;1.70;;
36725;SDS011;44936;52.086;5.150;2023-07-24T05:40:11;2.65;;;1.40;;
36725;SDS011;44936;52.086;5.150;2023-07-24T05:42:36;8.63;;;1.70;;
36725;SDS011;44936;52.086;5.150;2023-07-24T05:45:06;4.55;;;1.60;;
36725;SDS011;44936;52.086;5.150;2023-07-24T05:47:33;3.50;;;1.33;;
36725;SDS011;44936;52.086;5.150;2023-07-24T05:49:59;5.22;;;2.10;;
36725;SDS011;44936;52.086;5.150;2023-07-24T05:52:24;4.40;;;1.88;;
36725;SDS011;44936;52.086;5.150;2023-07-24T05:54:49;3.35;;;1.73;;
36725;SDS011;44936;52.086;5.150;2023-07-24T05:57:15;5.53;;;1.90;;
36725;SDS011;44936;52.086;5.150;2023-07-24T05:59:40;3.67;;;1.73;;
36725;SDS011;44936;52.086;5.150;2023-07-24T06:02:05;3.53;;;1.63;;
36725;SDS011;44936;52.086;5.150;2023-07-24T06:04:32;3.35;;;1.60;;
36725;SDS011;44936;52.086;5.150;2023-07-24T06:06:57;3.45;;;1.60;;
36725;SDS011;44936;52.086;5.150;2023-07-24T06:09:23;3.40;;;1.57;;
36725;SDS011;44936;52.086;5.150;2023-07-24T06:11:48;4.22;;;1.98;;
36725;SDS011;44936;52.086;5.150;2023-07-24T06:14:13;5.07;;;1.85;;
36725;SDS011;44936;52.086;5.150;2023-07-24T06:16:39;4.00;;;1.92;;
36725;SDS011;44936;52.086;5.150;2023-07-24T06:19:04;3.95;;;1.80;;
36725;SDS011;44936;52.086;5.150;2023-07-24T06:21:30;6.30;;;2.38;;
36725;SDS011;44936;52.086;5.150;2023-07-24T06:23:55;6.10;;;1.88;;
36725;SDS011;44936;52.086;5.150;2023-07-24T06:26:21;3.67;;;1.85;;
36725;SDS011;44936;52.086;5.150;2023-07-24T06:28:46;5.30;;;1.70;;
36725;SDS011;44936;52.086;5.150;2023-07-24T06:31:12;2.88;;;1.50;;
36725;SDS011;44936;52.086;5.150;2023-07-24T06:33:37;2.78;;;1.48;;
36725;SDS011;44936;52.086;5.150;2023-07-24T06:36:02;5.00;;;1.67;;
36725;SDS011;44936;52.086;5.150;2023-07-24T06:38:28;3.78;;;2.03;;
36725;SDS011;44936;52.086;5.150;2023-07-24T06:40:53;4.50;;;1.60;;
36725;SDS011;44936;52.086;5.150;2023-07-24T06:43:18;4.93;;;1.60;;
36725;SDS011;44936;52.086;5.150;2023-07-24T06:45:44;6.97;;;1.90;;
36725;SDS011;44936;52.086;5.150;2023-07-24T06:48:09;3.78;;;1.70;;
36725;SDS011;44936;52.086;5.150;2023-07-24T06:50:35;4.28;;;1.80;;
36725;SDS011;44936;52.086;5.150;2023-07-24T06:53:00;4.70;;;1.80;;
36725;SDS011;44936;52.086;5.150;2023-07-24T06:55:25;3.50;;;1.60;;
36725;SDS011;44936;52.086;5.150;2023-07-24T06:57:51;5.43;;;1.77;;
36725;SDS011;44936;52.086;5.150;2023-07-24T07:00:16;5.50;;;2.10;;
36725;SDS011;44936;52.086;5.150;2023-07-24T07:02:42;2.83;;;1.80;;
36725;SDS011;44936;52.086;5.150;2023-07-24T07:05:07;4.82;;;1.92;;
36725;SDS011;44936;52.086;5.150;2023-07-24T07:07:33;4.10;;;1.85;;
36725;SDS011;44936;52.086;5.150;2023-07-24T07:09:58;7.60;;;2.20;;
36725;SDS011;44936;52.086;5.150;2023-07-24T07:12:24;12.10;;;2.15;;
36725;SDS011;44936;52.086;5.150;2023-07-24T07:14:49;3.85;;;1.83;;
36725;SDS011;44936;52.086;5.150;2023-07-24T07:17:14;5.75;;;2.55;;
36725;SDS011;44936;52.086;5.150;2023-07-24T07:19:40;2.78;;;1.63;;
36725;SDS011;44936;52.086;5.150;2023-07-24T07:22:05;6.55;;;1.85;;
36725;SDS011;44936;52.086;5.150;2023-07-24T07:24:31;6.10;;;1.90;;
36725;SDS011;44936;52.086;5.150;2023-07-24T07:26:56;3.95;;;1.75;;
36725;SDS011;44936;52.086;5.150;2023-07-24T07:29:21;5.25;;;1.85;;
36725;SDS011;44936;52.086;5.150;2023-07-24T07:31:47;3.15;;;1.50;;
36725;SDS011;44936;52.086;5.150;2023-07-24T07:34:12;4.40;;;1.40;;
36725;SDS011;44936;52.086;5.150;2023-07-24T07:36:37;2.83;;;1.58;;
36725;SDS011;44936;52.086;5.150;2023-07-24T07:39:03;4.47;;;1.63;;
36725;SDS011;44936;52.086;5.150;2023-07-24T07:41:28;6.10;;;1.83;;
36725;SDS011;44936;52.086;5.150;2023-07-24T07:43:54;6.80;;;1.98;;
36725;SDS011;44936;52.086;5.150;2023-07-24T07:46:19;3.42;;;1.45;;
36725;SDS011;44936;52.086;5.150;2023-07-24T07:48:45;4.10;;;1.60;;
36725;SDS011;44936;52.086;5.150;2023-07-24T07:51:11;2.60;;;1.38;;
36725;SDS011;44936;52.086;5.150;2023-07-24T07:53:37;4.20;;;2.17;;
36725;SDS011;44936;52.086;5.150;2023-07-24T07:56:03;5.07;;;1.88;;
36725;SDS011;44936;52.086;5.150;2023-07-24T07:58:29;3.20;;;1.50;;
36725;SDS011;44936;52.086;5.150;2023-07-24T08:00:55;5.80;;;2.25;;
36725;SDS011;44936;52.086;5.150;2023-07-24T08:03:20;4.65;;;1.83;;
36725;SDS011;44936;52.086;5.150;2023-07-24T08:05:46;3.70;;;1.92;;
36725;SDS011;44936;52.086;5.150;2023-07-24T08:08:11;5.60;;;1.80;;
36725;SDS011;44936;52.086;5.150;2023-07-24T08:10:37;4.95;;;1.85;;
36725;SDS011;44936;52.086;5.150;2023-07-24T08:13:03;5.53;;;1.90;;
36725;SDS011;44936;52.086;5.150;2023-07-24T08:15:28;4.32;;;1.70;;
36725;SDS011;44936;52.086;5.150;2023-07-24T08:17:54;4.10;;;2.20;;
36725;SDS011;44936;52.086;5.150;2023-07-24T08:20:19;3.47;;;2.03;;
36725;SDS011;44936;52.086;5.150;2023-07-24T08:22:44;4.05;;;2.08;;
36725;SDS011;44936;52.086;5.150;2023-07-24T08:25:09;3.63;;;1.60;;
36725;SDS011;44936;52.086;5.150;2023-07-24T08:27:35;10.50;;;2.15;;
36725;SDS011;44936;52.086;5.150;2023-07-24T08:30:00;6.03;;;2.15;;
36725;SDS011;44936;52.086;5.150;2023-07-24T08:32:25;3.45;;;1.67;;
36725;SDS011;44936;52.086;5.150;2023-07-24T08:34:51;5.40;;;1.80;;
36725;SDS011;44936;52.086;5.150;2023-07-24T08:37:16;3.70;;;1.70;;
36725;SDS011;44936;52.086;5.150;2023-07-24T08:39:41;6.18;;;2.30;;
36725;SDS011;44936;52.086;5.150;2023-07-24T08:42:10;3.28;;;1.80;;
36725;SDS011;44936;52.086;5.150;2023-07-24T08:44:37;4.68;;;1.83;;
36725;SDS011;44936;52.086;5.150;2023-07-24T08:47:03;3.00;;;2.13;;
36725;SDS011;44936;52.086;5.150;2023-07-24T08:49:31;3.97;;;1.83;;
36725;SDS011;44936;52.086;5.150;2023-07-24T08:51:57;4.97;;;1.75;;
36725;SDS011;44936;52.086;5.150;2023-07-24T08:54:23;3.35;;;1.83;;
36725;SDS011;44936;52.086;5.150;2023-07-24T08:56:51;3.08;;;1.60;;
36725;SDS011;44936;52.086;5.150;2023-07-24T08:59:17;3.90;;;2.08;;
36725;SDS011;44936;52.086;5.150;2023-07-24T09:01:42;5.88;;;2.10;;
36725;SDS011;44936;52.086;5.150;2023-07-24T09:04:08;5.78;;;1.98;;
36725;SDS011;44936;52.086;5.150;2023-07-24T09:06:33;2.90;;;1.55;;
36725;SDS011;44936;52.086;5.150;2023-07-24T09:08:59;3.83;;;1.90;;
36725;SDS011;44936;52.086;5.150;2023-07-24T09:11:24;4.25;;;2.25;;
36725;SDS011;44936;52.086;5.150;2023-07-24T09:13:50;3.22;;;1.67;;
36725;SDS011;44936;52.086;5.150;2023-07-24T09:16:22;4.90;;;2.30;;
36725;SDS011;44936;52.086;5.150;2023-07-24T09:18:51;3.45;;;1.73;;
36725;SDS011;44936;52.086;5.150;2023-07-24T09:21:27;4.32;;;2.00;;
36725;SDS011;44936;52.086;5.150;2023-07-24T09:23:54;2.88;;;1.80;;
36725;SDS011;44936;52.086;5.150;2023-07-24T09:26:19;4.22;;;2.00;;
36725;SDS011;44936;52.086;5.150;2023-07-24T09:28:51;8.40;;;2.65;;
36725;SDS011;44936;52.086;5.150;2023-07-24T09:31:17;4.30;;;2.00;;
36725;SDS011;44936;52.086;5.150;2023-07-24T09:33:43;6.05;;;2.05;;
36725;SDS011;44936;52.086;5.150;2023-07-24T09:36:11;5.43;;;2.20;;
36725;SDS011;44936;52.086;5.150;2023-07-24T09:38:38;5.03;;;2.38;;
36725;SDS011;44936;52.086;5.150;2023-07-24T09:41:04;5.05;;;2.20;;
36725;SDS011;44936;52.086;5.150;2023-07-24T09:43:30;5.20;;;2.08;;
36725;SDS011;44936;52.086;5.150;2023-07-24T09:45:56;4.93;;;2.22;;
36725;SDS011;44936;52.086;5.150;2023-07-24T09:48:25;3.17;;;1.60;;
36725;SDS011;44936;52.086;5.150;2023-07-24T09:50:55;5.05;;;2.03;;
36725;SDS011;44936;52.086;5.150;2023-07-24T09:56:04;5.80;;;1.90;;
36725;SDS011;44936;52.086;5.150;2023-07-24T09:58:34;2.78;;;1.40;;
36725;SDS011;44936;52.086;5.150;2023-07-24T10:01:08;2.75;;;1.60;;
36725;SDS011;44936;52.086;5.150;2023-07-24T10:03:35;2.08;;;1.73;;
36725;SDS011;44936;52.086;5.150;2023-07-24T10:06:03;5.72;;;2.15;;
36725;SDS011;44936;52.086;5.150;2023-07-24T10:08:29;4.00;;;1.50;;
36725;SDS011;44936;52.086;5.150;2023-07-24T10:10:55;5.10;;;1.80;;
36725;SDS011;44936;52.086;5.150;2023-07-24T10:13:21;3.50;;;2.00;;
36725;SDS011;44936;52.086;5.150;2023-07-24T10:15:47;2.60;;;1.63;;
36725;SDS011;44936;52.086;5.150;2023-07-24T10:18:14;3.08;;;1.77;;
36725;SDS011;44936;52.086;5.150;2023-07-24T10:20:41;5.32;;;2.13;;
36725;SDS011;44936;52.086;5.150;2023-07-24T10:23:11;4.32;;;2.58;;
36725;SDS011;44936;52.086;5.150;2023-07-24T10:25:43;2.38;;;1.80;;
36725;SDS011;44936;52.086;5.150;2023-07-24T10:28:11;5.88;;;1.77;;
36725;SDS011;44936;52.086;5.150;2023-07-24T10:30:38;5.95;;;2.63;;
36725;SDS011;44936;52.086;5.150;2023-07-24T10:33:05;5.60;;;2.17;;
36725;SDS011;44936;52.086;5.150;2023-07-24T10:35:42;2.67;;;2.13;;
36725;SDS011;44936;52.086;5.150;2023-07-24T10:38:09;3.50;;;2.05;;
36725;SDS011;44936;52.086;5.150;2023-07-24T10:40:35;4.07;;;1.70;;
36725;SDS011;44936;52.086;5.150;2023-07-24T10:43:04;3.85;;;2.22;;
36725;SDS011;44936;52.086;5.150;2023-07-24T10:48:11;3.85;;;2.10;;
36725;SDS011;44936;52.086;5.150;2023-07-24T10:50:38;4.55;;;2.00;;
36725;SDS011;44936;52.086;5.150;2023-07-24T10:53:04;3.25;;;1.67;;
36725;SDS011;44936;52.086;5.150;2023-07-24T10:55:29;5.15;;;2.42;;
36725;SDS011;44936;52.086;5.150;2023-07-24T10:57:55;4.82;;;2.28;;
36725;SDS011;44936;52.086;5.150;2023-07-24T11:00:20;5.70;;;2.17;;
36725;SDS011;44936;52.086;5.150;2023-07-24T11:02:45;5.45;;;2.17;;
36725;SDS011;44936;52.086;5.150;2023-07-24T11:05:11;3.50;;;1.95;;
36725;SDS011;44936;52.086;5.150;2023-07-24T11:07:38;3.25;;;1.77;;
36725;SDS011;44936;52.086;5.150;2023-07-24T11:10:13;5.80;;;1.95;;
36725;SDS011;44936;52.086;5.150;2023-07-24T11:12:39;2.85;;;1.70;;
36725;SDS011;44936;52.086;5.150;2023-07-24T11:15:05;5.80;;;1.98;;
36725;SDS011;44936;52.086;5.150;2023-07-24T11:17:34;4.25;;;2.28;;
36725;SDS011;44936;52.086;5.150;2023-07-24T11:20:12;3.60;;;1.85;;
36725;SDS011;44936;52.086;5.150;2023-07-24T11:22:42;5.95;;;1.85;;
36725;SDS011;44936;52.086;5.150;2023-07-24T11:25:09;5.57;;;2.20;;
36725;SDS011;44936;52.086;5.150;2023-07-24T11:27:42;4.60;;;2.00;;
36725;SDS011;44936;52.086;5.150;2023-07-24T11:30:09;5.10;;;2.20;;
36725;SDS011;44936;52.086;5.150;2023-07-24T11:32:44;2.67;;;1.60;;
36725;SDS011;44936;52.086;5.150;2023-07-24T11:35:09;3.75;;;1.77;;
36725;SDS011;44936;52.086;5.150;2023-07-24T11:37:35;3.17;;;1.67;;
36725;SDS011;44936;52.086;5.150;2023-07-24T11:40:02;3.67;;;1.73;;
36725;SDS011;44936;52.086;5.150;2023-07-24T11:42:33;5.55;;;1.95;;
36725;SDS011;44936;52.086;5.150;2023-07-24T11:45:02;6.55;;;1.90;;
36725;SDS011;44936;52.086;5.150;2023-07-24T11:47:28;3.92;;;2.20;;
36725;SDS011;44936;52.086;5.150;2023-07-24T11:49:59;7.20;;;2.00;;
36725;SDS011;44936;52.086;5.150;2023-07-24T11:52:25;4.03;;;1.60;;
36725;SDS011;44936;52.086;5.150;2023-07-24T11:54:57;5.82;;;2.22;;
36725;SDS011;44936;52.086;5.150;2023-07-24T11:57:28;3.10;;;1.42;;
36725;SDS011;44936;52.086;5.150;2023-07-24T11:59:54;4.53;;;1.70;;
36725;SDS011;44936;52.086;5.150;2023-07-24T12:02:19;4.82;;;1.88;;
36725;SDS011;44936;52.086;5.150;2023-07-24T12:04:44;5.80;;;1.90;;
36725;SDS011;44936;52.086;5.150;2023-07-24T12:07:10;3.13;;;1.50;;
36725;SDS011;44936;52.086;5.150;2023-07-24T12:09:35;4.80;;;2.20;;
36725;SDS011;44936;52.086;5.150;2023-07-24T12:12:02;4.55;;;2.00;;
36725;SDS011;44936;52.086;5.150;2023-07-24T12:14:29;2.70;;;1.60;;
36725;SDS011;44936;52.086;5.150;2023-07-24T12:17:04;2.97;;;1.73;;
36725;SDS011;44936;52.086;5.150;2023-07-24T12:19:34;3.47;;;1.67;;
36725;SDS011;44936;52.086;5.150;2023-07-24T12:22:01;4.90;;;1.92;;
36725;SDS011;44936;52.086;5.150;2023-07-24T12:24:28;3.75;;;1.80;;
36725;SDS011;44936;52.086;5.150;2023-07-24T12:26:53;4.60;;;2.38;;
36725;SDS011;44936;52.086;5.150;2023-07-24T12:29:19;11.15;;;2.60;;
36725;SDS011;44936;52.086;5.150;2023-07-24T12:31:44;4.63;;;2.50;;
36725;SDS011;44936;52.086;5.150;2023-07-24T12:34:09;4.38;;;2.40;;
36725;SDS011;44936;52.086;5.150;2023-07-24T12:36:35;3.10;;;1.95;;
36725;SDS011;44936;52.086;5.150;2023-07-24T12:39:00;5.30;;;2.85;;
36725;SDS011;44936;52.086;5.150;2023-07-24T12:41:25;5.93;;;2.75;;
36725;SDS011;44936;52.086;5.150;2023-07-24T12:43:54;6.63;;;2.80;;
36725;SDS011;44936;52.086;5.150;2023-07-24T12:46:19;8.50;;;2.80;;
36725;SDS011;44936;52.086;5.150;2023-07-24T12:48:45;5.03;;;2.47;;
36725;SDS011;44936;52.086;5.150;2023-07-24T12:51:10;5.25;;;2.63;;
36725;SDS011;44936;52.086;5.150;2023-07-24T12:53:35;5.38;;;2.78;;
36725;SDS011;44936;52.086;5.150;2023-07-24T12:56:01;3.42;;;2.10;;
36725;SDS011;44936;52.086;5.150;2023-07-24T12:58:26;4.97;;;2.25;;
36725;SDS011;44936;52.086;5.150;2023-07-24T13:00:51;3.42;;;2.20;;
36725;SDS011;44936;52.086;5.150;2023-07-24T13:03:17;4.35;;;2.38;;
36725;SDS011;44936;52.086;5.150;2023-07-24T13:05:42;4.03;;;2.33;;
36725;SDS011;44936;52.086;5.150;2023-07-24T13:08:08;5.53;;;2.95;;
36725;SDS011;44936;52.086;5.150;2023-07-24T13:10:33;3.97;;;2.38;;
36725;SDS011;44936;52.086;5.150;2023-07-24T13:12:58;3.58;;;2.22;;
36725;SDS011;44936;52.086;5.150;2023-07-24T13:15:26;4.75;;;2.63;;
36725;SDS011;44936;52.086;5.150;2023-07-24T13:17:51;4.70;;;2.20;;
36725;SDS011;44936;52.086;5.150;2023-07-24T13:20:16;6.07;;;2.67;;
36725;SDS011;44936;52.086;5.150;2023-07-24T13:22:42;4.68;;;2.90;;
36725;SDS011;44936;52.086;5.150;2023-07-24T13:25:11;5.22;;;2.10;;
36725;SDS011;44936;52.086;5.150;2023-07-24T13:27:36;3.95;;;2.25;;
36725;SDS011;44936;52.086;5.150;2023-07-24T13:30:02;3.47;;;1.95;;
36725;SDS011;44936;52.086;5.150;2023-07-24T13:32:27;2.63;;;1.70;;
36725;SDS011;44936;52.086;5.150;2023-07-24T13:34:54;4.38;;;1.70;;
36725;SDS011;44936;52.086;5.150;2023-07-24T13:37:20;3.92;;;1.60;;
36725;SDS011;44936;52.086;5.150;2023-07-24T13:39:46;2.60;;;1.67;;
36725;SDS011;44936;52.086;5.150;2023-07-24T13:42:11;2.63;;;1.35;;
36725;SDS011;44936;52.086;5.150;2023-07-24T13:44:37;1.58;;;1.15;;
36725;SDS011;44936;52.086;5.150;2023-07-24T13:47:02;1.38;;;1.10;;
36725;SDS011;44936;52.086;5.150;2023-07-24T13:49:28;2.72;;;1.27;;
36725;SDS011;44936;52.086;5.150;2023-07-24T13:51:53;2.15;;;1.05;;
36725;SDS011;44936;52.086;5.150;2023-07-24T13:54:18;1.52;;;1.02;;
36725;SDS011;44936;52.086;5.150;2023-07-24T13:56:44;2.83;;;1.10;;
36725;SDS011;44936;52.086;5.150;2023-07-24T13:59:09;0.98;;;0.82;;
36725;SDS011;44936;52.086;5.150;2023-07-24T14:01:34;3.95;;;1.30;;
36725;SDS011;44936;52.086;5.150;2023-07-24T14:04:00;1.10;;;0.88;;
36725;SDS011;44936;52.086;5.150;2023-07-24T14:06:25;1.98;;;0.80;;
36725;SDS011;44936;52.086;5.150;2023-07-24T14:08:51;2.05;;;1.10;;
36725;SDS011;44936;52.086;5.150;2023-07-24T14:11:16;2.70;;;1.08;;
36725;SDS011;44936;52.086;5.150;2023-07-24T14:13:41;1.98;;;0.82;;
36725;SDS011;44936;52.086;5.150;2023-07-24T14:16:07;1.23;;;0.90;;
36725;SDS011;44936;52.086;5.150;2023-07-24T14:18:32;1.40;;;1.02;;
36725;SDS011;44936;52.086;5.150;2023-07-24T14:20:57;4.32;;;1.30;;
36725;SDS011;44936;52.086;5.150;2023-07-24T14:23:24;3.63;;;0.93;;
36725;SDS011;44936;52.086;5.150;2023-07-24T14:25:49;3.50;;;0.60;;
36725;SDS011;44936;52.086;5.150;2023-07-24T14:28:15;3.00;;;0.70;;
36725;SDS011;44936;52.086;5.150;2023-07-24T14:30:40;0.95;;;0.52;;
36725;SDS011;44936;52.086;5.150;2023-07-24T14:33:05;1.00;;;0.85;;
36725;SDS011;44936;52.086;5.150;2023-07-24T14:35:31;2.40;;;1.10;;
36725;SDS011;44936;52.086;5.150;2023-07-24T14:37:56;1.20;;;0.52;;
36725;SDS011;44936;52.086;5.150;2023-07-24T14:40:21;0.90;;;0.55;;
36725;SDS011;44936;52.086;5.150;2023-07-24T14:42:47;1.38;;;0.75;;
36725;SDS011;44936;52.086;5.150;2023-07-24T14:45:12;0.82;;;0.68;;
36725;SDS011;44936;52.086;5.150;2023-07-24T14:47:38;1.02;;;0.73;;
36725;SDS011;44936;52.086;5.150;2023-07-24T14:50:03;4.28;;;0.80;;
36725;SDS011;44936;52.086;5.150;2023-07-24T14:52:29;1.30;;;0.90;;